sensor_id;sensor_type;location;lat;lon;timestamp;P1;durP1;ratioP1;P2;durP2;ratioP2
75261;SDS011;63859;51.064;4.580;2024-02-26T00:02:02;3.00;;;2.07;;
75261;SDS011;63859;51.064;4.580;2024-02-26T00:04:28;2.63;;;1.97;;
75261;SDS011;63859;51.064;4.580;2024-02-26T00:06:53;3.90;;;2.13;;
75261;SDS011;63859;51.064;4.580;2024-02-26T00:09:20;2.37;;;2.17;;
75261;SDS011;63859;51.064;4.580;2024-02-26T00:11:46;3.63;;;2.10;;
75261;SDS011;63859;51.064;4.580;2024-02-26T00:14:11;3.27;;;1.90;;
75261;SDS011;63859;51.064;4.580;2024-02-26T00:16:39;3.40;;;2.00;;
75261;SDS011;63859;51.064;4.580;2024-02-26T00:19:06;2.00;;;1.80;;
75261;SDS011;63859;51.064;4.580;2024-02-26T00:21:32;2.30;;;1.90;;
75261;SDS011;63859;51.064;4.580;2024-02-26T00:23:58;3.90;;;1.93;;
75261;SDS011;63859;51.064;4.580;2024-02-26T00:26:23;3.70;;;2.00;;
75261;SDS011;63859;51.064;4.580;2024-02-26T00:28:49;4.20;;;2.00;;
75261;SDS011;63859;51.064;4.580;2024-02-26T00:31:15;3.67;;;2.03;;
75261;SDS011;63859;51.064;4.580;2024-02-26T00:33:41;3.00;;;1.80;;
75261;SDS011;63859;51.064;4.580;2024-02-26T00:36:06;2.50;;;1.73;;
75261;SDS011;63859;51.064;4.580;2024-02-26T00:38:32;3.63;;;2.20;;
75261;SDS011;63859;51.064;4.580;2024-02-26T00:40:58;2.90;;;1.97;;
75261;SDS011;63859;51.064;4.580;2024-02-26T00:43:23;2.27;;;1.90;;
75261;SDS011;63859;51.064;4.580;2024-02-26T00:45:49;6.57;;;2.20;;
75261;SDS011;63859;51.064;4.580;2024-02-26T00:48:16;4.40;;;2.43;;
75261;SDS011;63859;51.064;4.580;2024-02-26T00:50:42;3.57;;;2.30;;
75261;SDS011;63859;51.064;4.580;2024-02-26T00:53:08;3.63;;;1.90;;
75261;SDS011;63859;51.064;4.580;2024-02-26T00:55:33;2.07;;;1.87;;
75261;SDS011;63859;51.064;4.580;2024-02-26T00:57:59;3.90;;;2.13;;
75261;SDS011;63859;51.064;4.580;2024-02-26T01:00:25;4.00;;;2.10;;
75261;SDS011;63859;51.064;4.580;2024-02-26T01:02:50;4.23;;;2.23;;
75261;SDS011;63859;51.064;4.580;2024-02-26T01:05:16;4.63;;;2.20;;
75261;SDS011;63859;51.064;4.580;2024-02-26T01:07:42;4.83;;;2.10;;
75261;SDS011;63859;51.064;4.580;2024-02-26T01:10:07;2.10;;;1.87;;
75261;SDS011;63859;51.064;4.580;2024-02-26T01:12:34;4.13;;;2.10;;
75261;SDS011;63859;51.064;4.580;2024-02-26T01:15:00;3.13;;;2.13;;
75261;SDS011;63859;51.064;4.580;2024-02-26T01:17:29;3.40;;;1.90;;
75261;SDS011;63859;51.064;4.580;2024-02-26T01:19:55;2.43;;;1.80;;
75261;SDS011;63859;51.064;4.580;2024-02-26T01:22:21;2.83;;;2.23;;
75261;SDS011;63859;51.064;4.580;2024-02-26T01:24:47;3.17;;;1.90;;
75261;SDS011;63859;51.064;4.580;2024-02-26T01:27:13;2.33;;;2.00;;
75261;SDS011;63859;51.064;4.580;2024-02-26T01:29:40;2.57;;;1.77;;
75261;SDS011;63859;51.064;4.580;2024-02-26T01:32:06;3.60;;;2.03;;
75261;SDS011;63859;51.064;4.580;2024-02-26T01:34:32;2.57;;;2.17;;
75261;SDS011;63859;51.064;4.580;2024-02-26T01:36:58;2.30;;;1.97;;
75261;SDS011;63859;51.064;4.580;2024-02-26T01:39:24;2.83;;;2.07;;
75261;SDS011;63859;51.064;4.580;2024-02-26T01:41:50;2.33;;;2.03;;
75261;SDS011;63859;51.064;4.580;2024-02-26T01:44:15;2.90;;;2.20;;
75261;SDS011;63859;51.064;4.580;2024-02-26T01:46:41;2.30;;;2.07;;
75261;SDS011;63859;51.064;4.580;2024-02-26T01:49:08;2.27;;;2.07;;
75261;SDS011;63859;51.064;4.580;2024-02-26T01:51:37;2.70;;;2.00;;
75261;SDS011;63859;51.064;4.580;2024-02-26T01:54:04;3.23;;;1.93;;
75261;SDS011;63859;51.064;4.580;2024-02-26T01:56:32;2.40;;;2.20;;
75261;SDS011;63859;51.064;4.580;2024-02-26T01:59:00;6.40;;;2.30;;
75261;SDS011;63859;51.064;4.580;2024-02-26T02:01:27;3.57;;;2.57;;
75261;SDS011;63859;51.064;4.580;2024-02-26T02:03:55;4.77;;;2.47;;
75261;SDS011;63859;51.064;4.580;2024-02-26T02:06:23;3.90;;;2.40;;
75261;SDS011;63859;51.064;4.580;2024-02-26T02:08:49;2.30;;;2.10;;
75261;SDS011;63859;51.064;4.580;2024-02-26T02:11:14;3.43;;;2.50;;
75261;SDS011;63859;51.064;4.580;2024-02-26T02:13:40;2.70;;;2.40;;
75261;SDS011;63859;51.064;4.580;2024-02-26T02:16:06;4.27;;;2.40;;
75261;SDS011;63859;51.064;4.580;2024-02-26T02:18:32;3.63;;;2.87;;
75261;SDS011;63859;51.064;4.580;2024-02-26T02:21:00;3.83;;;2.30;;
75261;SDS011;63859;51.064;4.580;2024-02-26T02:23:26;3.57;;;2.60;;
75261;SDS011;63859;51.064;4.580;2024-02-26T02:25:52;4.10;;;2.30;;
75261;SDS011;63859;51.064;4.580;2024-02-26T02:28:20;5.27;;;2.70;;
75261;SDS011;63859;51.064;4.580;2024-02-26T02:30:46;5.07;;;2.53;;
75261;SDS011;63859;51.064;4.580;2024-02-26T02:33:12;4.47;;;2.73;;
75261;SDS011;63859;51.064;4.580;2024-02-26T02:35:40;2.90;;;2.60;;
75261;SDS011;63859;51.064;4.580;2024-02-26T02:38:06;3.33;;;2.83;;
75261;SDS011;63859;51.064;4.580;2024-02-26T02:40:31;3.07;;;2.57;;
75261;SDS011;63859;51.064;4.580;2024-02-26T02:42:57;5.07;;;2.90;;
75261;SDS011;63859;51.064;4.580;2024-02-26T02:45:23;3.63;;;2.60;;
75261;SDS011;63859;51.064;4.580;2024-02-26T02:47:49;6.73;;;2.93;;
75261;SDS011;63859;51.064;4.580;2024-02-26T02:50:15;4.47;;;2.50;;
75261;SDS011;63859;51.064;4.580;2024-02-26T02:52:41;3.17;;;2.70;;
75261;SDS011;63859;51.064;4.580;2024-02-26T02:55:06;4.77;;;2.90;;
75261;SDS011;63859;51.064;4.580;2024-02-26T02:57:32;3.80;;;2.70;;
75261;SDS011;63859;51.064;4.580;2024-02-26T02:59:58;4.47;;;2.87;;
75261;SDS011;63859;51.064;4.580;2024-02-26T03:02:24;6.87;;;3.03;;
75261;SDS011;63859;51.064;4.580;2024-02-26T03:04:52;5.57;;;2.90;;
75261;SDS011;63859;51.064;4.580;2024-02-26T03:07:18;3.47;;;2.83;;
75261;SDS011;63859;51.064;4.580;2024-02-26T03:09:43;5.50;;;3.20;;
75261;SDS011;63859;51.064;4.580;2024-02-26T03:12:09;5.07;;;3.33;;
75261;SDS011;63859;51.064;4.580;2024-02-26T03:14:35;6.97;;;3.60;;
75261;SDS011;63859;51.064;4.580;2024-02-26T03:17:00;5.47;;;3.43;;
75261;SDS011;63859;51.064;4.580;2024-02-26T03:19:26;6.00;;;4.17;;
75261;SDS011;63859;51.064;4.580;2024-02-26T03:21:52;4.70;;;3.80;;
75261;SDS011;63859;51.064;4.580;2024-02-26T03:24:17;7.93;;;4.17;;
75261;SDS011;63859;51.064;4.580;2024-02-26T03:26:43;5.83;;;4.37;;
75261;SDS011;63859;51.064;4.580;2024-02-26T03:29:08;9.73;;;4.53;;
75261;SDS011;63859;51.064;4.580;2024-02-26T03:31:34;5.03;;;4.00;;
75261;SDS011;63859;51.064;4.580;2024-02-26T03:34:00;8.93;;;4.40;;
75261;SDS011;63859;51.064;4.580;2024-02-26T03:36:25;5.70;;;4.70;;
75261;SDS011;63859;51.064;4.580;2024-02-26T03:38:51;7.53;;;5.57;;
75261;SDS011;63859;51.064;4.580;2024-02-26T03:41:17;7.80;;;5.67;;
75261;SDS011;63859;51.064;4.580;2024-02-26T03:43:43;7.17;;;5.40;;
75261;SDS011;63859;51.064;4.580;2024-02-26T03:46:10;10.40;;;6.07;;
75261;SDS011;63859;51.064;4.580;2024-02-26T03:48:38;12.30;;;6.07;;
75261;SDS011;63859;51.064;4.580;2024-02-26T03:51:05;7.53;;;5.07;;
75261;SDS011;63859;51.064;4.580;2024-02-26T03:53:30;7.90;;;5.50;;
75261;SDS011;63859;51.064;4.580;2024-02-26T03:55:56;7.70;;;5.73;;
75261;SDS011;63859;51.064;4.580;2024-02-26T03:58:21;6.57;;;4.90;;
75261;SDS011;63859;51.064;4.580;2024-02-26T04:00:47;7.77;;;5.53;;
75261;SDS011;63859;51.064;4.580;2024-02-26T04:03:13;8.67;;;6.13;;
75261;SDS011;63859;51.064;4.580;2024-02-26T04:05:39;9.03;;;6.27;;
75261;SDS011;63859;51.064;4.580;2024-02-26T04:08:05;8.83;;;6.63;;
75261;SDS011;63859;51.064;4.580;2024-02-26T04:10:32;10.53;;;6.83;;
75261;SDS011;63859;51.064;4.580;2024-02-26T04:13:00;12.80;;;7.57;;
75261;SDS011;63859;51.064;4.580;2024-02-26T04:15:26;11.80;;;7.50;;
75261;SDS011;63859;51.064;4.580;2024-02-26T04:17:51;10.33;;;7.17;;
75261;SDS011;63859;51.064;4.580;2024-02-26T04:20:17;14.80;;;8.37;;
75261;SDS011;63859;51.064;4.580;2024-02-26T04:22:43;12.07;;;7.40;;
75261;SDS011;63859;51.064;4.580;2024-02-26T04:25:09;13.03;;;7.87;;
75261;SDS011;63859;51.064;4.580;2024-02-26T04:27:35;12.17;;;8.10;;
75261;SDS011;63859;51.064;4.580;2024-02-26T04:30:00;12.97;;;7.13;;
75261;SDS011;63859;51.064;4.580;2024-02-26T04:32:26;11.87;;;8.07;;
75261;SDS011;63859;51.064;4.580;2024-02-26T04:34:53;13.30;;;8.07;;
75261;SDS011;63859;51.064;4.580;2024-02-26T04:37:19;10.03;;;7.93;;
75261;SDS011;63859;51.064;4.580;2024-02-26T04:39:45;11.00;;;7.40;;
75261;SDS011;63859;51.064;4.580;2024-02-26T04:42:10;12.00;;;8.00;;
75261;SDS011;63859;51.064;4.580;2024-02-26T04:44:36;10.13;;;7.43;;
75261;SDS011;63859;51.064;4.580;2024-02-26T04:47:02;11.83;;;7.47;;
75261;SDS011;63859;51.064;4.580;2024-02-26T04:49:28;14.37;;;8.30;;
75261;SDS011;63859;51.064;4.580;2024-02-26T04:51:53;10.70;;;7.27;;
75261;SDS011;63859;51.064;4.580;2024-02-26T04:54:19;9.73;;;7.70;;
75261;SDS011;63859;51.064;4.580;2024-02-26T04:56:45;10.43;;;7.40;;
75261;SDS011;63859;51.064;4.580;2024-02-26T04:59:11;12.80;;;7.67;;
75261;SDS011;63859;51.064;4.580;2024-02-26T05:01:37;11.03;;;7.57;;
75261;SDS011;63859;51.064;4.580;2024-02-26T05:04:02;10.23;;;8.13;;
75261;SDS011;63859;51.064;4.580;2024-02-26T05:06:28;12.07;;;7.83;;
75261;SDS011;63859;51.064;4.580;2024-02-26T05:08:54;10.17;;;7.53;;
75261;SDS011;63859;51.064;4.580;2024-02-26T05:11:20;10.33;;;7.63;;
75261;SDS011;63859;51.064;4.580;2024-02-26T05:13:47;11.27;;;7.23;;
75261;SDS011;63859;51.064;4.580;2024-02-26T05:16:13;8.73;;;7.10;;
75261;SDS011;63859;51.064;4.580;2024-02-26T05:18:39;8.73;;;7.17;;
75261;SDS011;63859;51.064;4.580;2024-02-26T05:21:04;10.10;;;7.77;;
75261;SDS011;63859;51.064;4.580;2024-02-26T05:23:30;11.63;;;7.77;;
75261;SDS011;63859;51.064;4.580;2024-02-26T05:25:55;8.97;;;7.33;;
75261;SDS011;63859;51.064;4.580;2024-02-26T05:28:21;9.30;;;6.90;;
75261;SDS011;63859;51.064;4.580;2024-02-26T05:30:47;12.63;;;7.53;;
75261;SDS011;63859;51.064;4.580;2024-02-26T05:33:13;9.17;;;7.10;;
75261;SDS011;63859;51.064;4.580;2024-02-26T05:35:38;8.03;;;6.87;;
75261;SDS011;63859;51.064;4.580;2024-02-26T05:38:05;7.80;;;6.03;;
75261;SDS011;63859;51.064;4.580;2024-02-26T05:40:31;7.67;;;6.43;;
75261;SDS011;63859;51.064;4.580;2024-02-26T05:42:57;9.47;;;6.87;;
75261;SDS011;63859;51.064;4.580;2024-02-26T05:45:22;9.53;;;7.03;;
75261;SDS011;63859;51.064;4.580;2024-02-26T05:47:48;8.80;;;6.83;;
75261;SDS011;63859;51.064;4.580;2024-02-26T05:50:14;8.70;;;7.03;;
75261;SDS011;63859;51.064;4.580;2024-02-26T05:52:40;8.20;;;6.03;;
75261;SDS011;63859;51.064;4.580;2024-02-26T05:55:07;10.00;;;7.30;;
75261;SDS011;63859;51.064;4.580;2024-02-26T05:57:33;9.80;;;7.50;;
75261;SDS011;63859;51.064;4.580;2024-02-26T06:00:00;9.70;;;7.07;;
75261;SDS011;63859;51.064;4.580;2024-02-26T06:02:31;10.43;;;7.70;;
75261;SDS011;63859;51.064;4.580;2024-02-26T06:04:57;11.20;;;8.20;;
75261;SDS011;63859;51.064;4.580;2024-02-26T06:07:23;11.33;;;8.37;;
75261;SDS011;63859;51.064;4.580;2024-02-26T06:09:49;9.83;;;7.50;;
75261;SDS011;63859;51.064;4.580;2024-02-26T06:12:14;10.10;;;8.20;;
75261;SDS011;63859;51.064;4.580;2024-02-26T06:14:41;9.23;;;8.23;;
75261;SDS011;63859;51.064;4.580;2024-02-26T06:17:08;13.27;;;8.60;;
75261;SDS011;63859;51.064;4.580;2024-02-26T06:19:35;11.67;;;8.80;;
75261;SDS011;63859;51.064;4.580;2024-02-26T06:22:01;13.57;;;8.83;;
75261;SDS011;63859;51.064;4.580;2024-02-26T06:24:26;10.20;;;8.60;;
75261;SDS011;63859;51.064;4.580;2024-02-26T06:26:52;10.97;;;8.57;;
75261;SDS011;63859;51.064;4.580;2024-02-26T06:29:18;10.67;;;9.27;;
75261;SDS011;63859;51.064;4.580;2024-02-26T06:31:43;12.70;;;9.57;;
75261;SDS011;63859;51.064;4.580;2024-02-26T06:34:09;12.27;;;9.80;;
75261;SDS011;63859;51.064;4.580;2024-02-26T06:36:34;12.67;;;9.80;;
75261;SDS011;63859;51.064;4.580;2024-02-26T06:39:00;13.10;;;9.63;;
75261;SDS011;63859;51.064;4.580;2024-02-26T06:41:26;11.37;;;9.67;;
75261;SDS011;63859;51.064;4.580;2024-02-26T06:43:55;13.63;;;9.10;;
75261;SDS011;63859;51.064;4.580;2024-02-26T06:46:24;13.17;;;9.43;;
75261;SDS011;63859;51.064;4.580;2024-02-26T06:48:51;12.67;;;9.20;;
75261;SDS011;63859;51.064;4.580;2024-02-26T06:51:17;11.40;;;9.00;;
75261;SDS011;63859;51.064;4.580;2024-02-26T06:53:43;12.60;;;10.03;;
75261;SDS011;63859;51.064;4.580;2024-02-26T06:56:08;11.20;;;9.00;;
75261;SDS011;63859;51.064;4.580;2024-02-26T06:58:34;11.20;;;8.63;;
75261;SDS011;63859;51.064;4.580;2024-02-26T07:00:59;13.90;;;8.83;;
75261;SDS011;63859;51.064;4.580;2024-02-26T07:03:25;11.23;;;8.53;;
75261;SDS011;63859;51.064;4.580;2024-02-26T07:05:51;12.73;;;8.77;;
75261;SDS011;63859;51.064;4.580;2024-02-26T07:08:17;11.67;;;8.70;;
75261;SDS011;63859;51.064;4.580;2024-02-26T07:10:43;11.73;;;8.13;;
75261;SDS011;63859;51.064;4.580;2024-02-26T07:13:09;9.37;;;8.10;;
75261;SDS011;63859;51.064;4.580;2024-02-26T07:15:35;10.60;;;8.57;;
75261;SDS011;63859;51.064;4.580;2024-02-26T07:18:00;11.67;;;8.03;;
75261;SDS011;63859;51.064;4.580;2024-02-26T07:20:29;9.83;;;7.57;;
75261;SDS011;63859;51.064;4.580;2024-02-26T07:22:55;9.67;;;8.00;;
75261;SDS011;63859;51.064;4.580;2024-02-26T07:25:22;11.67;;;8.17;;
75261;SDS011;63859;51.064;4.580;2024-02-26T07:27:49;10.40;;;8.60;;
75261;SDS011;63859;51.064;4.580;2024-02-26T07:30:15;9.53;;;7.87;;
75261;SDS011;63859;51.064;4.580;2024-02-26T07:32:42;11.47;;;7.77;;
75261;SDS011;63859;51.064;4.580;2024-02-26T07:35:08;9.07;;;6.70;;
75261;SDS011;63859;51.064;4.580;2024-02-26T07:37:34;10.10;;;7.53;;
75261;SDS011;63859;51.064;4.580;2024-02-26T07:39:59;12.83;;;8.23;;
75261;SDS011;63859;51.064;4.580;2024-02-26T07:42:25;9.97;;;7.80;;
75261;SDS011;63859;51.064;4.580;2024-02-26T07:44:51;8.67;;;7.40;;
75261;SDS011;63859;51.064;4.580;2024-02-26T07:47:17;8.57;;;7.20;;
75261;SDS011;63859;51.064;4.580;2024-02-26T07:49:43;9.47;;;6.97;;
75261;SDS011;63859;51.064;4.580;2024-02-26T07:52:10;9.13;;;7.30;;
75261;SDS011;63859;51.064;4.580;2024-02-26T07:54:35;8.73;;;6.67;;
75261;SDS011;63859;51.064;4.580;2024-02-26T07:57:01;8.37;;;7.43;;
75261;SDS011;63859;51.064;4.580;2024-02-26T07:59:30;9.40;;;7.33;;
75261;SDS011;63859;51.064;4.580;2024-02-26T08:01:56;9.40;;;7.63;;
75261;SDS011;63859;51.064;4.580;2024-02-26T08:04:22;9.00;;;6.90;;
75261;SDS011;63859;51.064;4.580;2024-02-26T08:06:48;8.87;;;6.97;;
75261;SDS011;63859;51.064;4.580;2024-02-26T08:09:13;8.57;;;7.03;;
75261;SDS011;63859;51.064;4.580;2024-02-26T08:11:39;11.37;;;7.57;;
75261;SDS011;63859;51.064;4.580;2024-02-26T08:14:04;8.83;;;7.33;;
75261;SDS011;63859;51.064;4.580;2024-02-26T08:16:30;9.40;;;7.27;;
75261;SDS011;63859;51.064;4.580;2024-02-26T08:18:56;10.13;;;7.10;;
75261;SDS011;63859;51.064;4.580;2024-02-26T08:21:22;8.83;;;6.97;;
75261;SDS011;63859;51.064;4.580;2024-02-26T08:23:48;8.00;;;7.17;;
75261;SDS011;63859;51.064;4.580;2024-02-26T08:26:14;9.17;;;7.13;;
75261;SDS011;63859;51.064;4.580;2024-02-26T08:28:39;8.63;;;6.83;;
75261;SDS011;63859;51.064;4.580;2024-02-26T08:31:05;8.60;;;7.03;;
75261;SDS011;63859;51.064;4.580;2024-02-26T08:33:31;8.30;;;7.50;;
75261;SDS011;63859;51.064;4.580;2024-02-26T08:35:59;9.77;;;7.03;;
75261;SDS011;63859;51.064;4.580;2024-02-26T08:38:24;9.43;;;7.63;;
75261;SDS011;63859;51.064;4.580;2024-02-26T08:40:51;8.80;;;7.50;;
75261;SDS011;63859;51.064;4.580;2024-02-26T08:43:17;9.80;;;7.27;;
75261;SDS011;63859;51.064;4.580;2024-02-26T08:45:44;8.07;;;7.13;;
75261;SDS011;63859;51.064;4.580;2024-02-26T08:48:10;10.20;;;7.63;;
75261;SDS011;63859;51.064;4.580;2024-02-26T08:50:35;12.07;;;7.90;;
75261;SDS011;63859;51.064;4.580;2024-02-26T08:53:01;11.07;;;8.27;;
75261;SDS011;63859;51.064;4.580;2024-02-26T08:55:29;10.27;;;7.70;;
75261;SDS011;63859;51.064;4.580;2024-02-26T08:57:54;9.90;;;8.17;;
75261;SDS011;63859;51.064;4.580;2024-02-26T09:00:20;11.57;;;8.30;;
75261;SDS011;63859;51.064;4.580;2024-02-26T09:02:48;11.93;;;8.63;;
75261;SDS011;63859;51.064;4.580;2024-02-26T09:05:15;10.57;;;8.47;;
75261;SDS011;63859;51.064;4.580;2024-02-26T09:07:41;9.83;;;7.23;;
75261;SDS011;63859;51.064;4.580;2024-02-26T09:10:06;10.13;;;7.93;;
75261;SDS011;63859;51.064;4.580;2024-02-26T09:12:36;10.50;;;8.30;;
75261;SDS011;63859;51.064;4.580;2024-02-26T09:15:02;10.73;;;8.57;;
75261;SDS011;63859;51.064;4.580;2024-02-26T09:17:28;11.27;;;8.27;;
75261;SDS011;63859;51.064;4.580;2024-02-26T09:19:54;10.33;;;8.07;;
75261;SDS011;63859;51.064;4.580;2024-02-26T09:22:19;10.00;;;8.27;;
75261;SDS011;63859;51.064;4.580;2024-02-26T09:24:45;10.57;;;8.30;;
75261;SDS011;63859;51.064;4.580;2024-02-26T09:27:11;9.50;;;7.87;;
75261;SDS011;63859;51.064;4.580;2024-02-26T09:29:36;9.50;;;7.97;;
75261;SDS011;63859;51.064;4.580;2024-02-26T09:32:02;11.37;;;8.30;;
75261;SDS011;63859;51.064;4.580;2024-02-26T09:34:28;9.00;;;7.30;;
75261;SDS011;63859;51.064;4.580;2024-02-26T09:36:54;9.53;;;8.00;;
75261;SDS011;63859;51.064;4.580;2024-02-26T09:39:19;10.97;;;8.30;;
75261;SDS011;63859;51.064;4.580;2024-02-26T09:41:47;8.30;;;7.37;;
75261;SDS011;63859;51.064;4.580;2024-02-26T09:44:20;9.90;;;7.83;;
75261;SDS011;63859;51.064;4.580;2024-02-26T09:46:49;10.23;;;8.13;;
75261;SDS011;63859;51.064;4.580;2024-02-26T09:49:16;9.30;;;6.93;;
75261;SDS011;63859;51.064;4.580;2024-02-26T09:51:43;10.40;;;7.17;;
75261;SDS011;63859;51.064;4.580;2024-02-26T09:54:09;9.27;;;7.20;;
75261;SDS011;63859;51.064;4.580;2024-02-26T09:56:39;9.03;;;7.57;;
75261;SDS011;63859;51.064;4.580;2024-02-26T09:59:13;9.53;;;7.50;;
75261;SDS011;63859;51.064;4.580;2024-02-26T10:01:42;9.57;;;6.37;;
75261;SDS011;63859;51.064;4.580;2024-02-26T10:04:09;7.83;;;6.80;;
75261;SDS011;63859;51.064;4.580;2024-02-26T10:06:36;6.63;;;5.73;;
75261;SDS011;63859;51.064;4.580;2024-02-26T10:09:03;7.67;;;6.17;;
75261;SDS011;63859;51.064;4.580;2024-02-26T10:11:32;8.40;;;6.57;;
75261;SDS011;63859;51.064;4.580;2024-02-26T10:13:58;8.43;;;5.57;;
75261;SDS011;63859;51.064;4.580;2024-02-26T10:16:24;6.97;;;5.60;;
75261;SDS011;63859;51.064;4.580;2024-02-26T10:18:53;7.20;;;5.80;;
75261;SDS011;63859;51.064;4.580;2024-02-26T10:21:22;8.30;;;6.00;;
75261;SDS011;63859;51.064;4.580;2024-02-26T10:23:48;8.70;;;5.83;;
75261;SDS011;63859;51.064;4.580;2024-02-26T10:26:15;6.20;;;5.60;;
75261;SDS011;63859;51.064;4.580;2024-02-26T10:28:42;6.60;;;5.63;;
75261;SDS011;63859;51.064;4.580;2024-02-26T10:31:08;7.23;;;6.33;;
75261;SDS011;63859;51.064;4.580;2024-02-26T10:33:35;7.40;;;5.80;;
75261;SDS011;63859;51.064;4.580;2024-02-26T10:36:04;9.63;;;6.90;;
75261;SDS011;63859;51.064;4.580;2024-02-26T10:38:32;8.97;;;6.70;;
75261;SDS011;63859;51.064;4.580;2024-02-26T10:40:58;8.77;;;6.20;;
75261;SDS011;63859;51.064;4.580;2024-02-26T10:43:27;8.33;;;6.17;;
75261;SDS011;63859;51.064;4.580;2024-02-26T10:45:54;6.27;;;5.17;;
75261;SDS011;63859;51.064;4.580;2024-02-26T10:48:20;6.70;;;5.93;;
75261;SDS011;63859;51.064;4.580;2024-02-26T10:50:47;6.77;;;5.80;;
75261;SDS011;63859;51.064;4.580;2024-02-26T10:53:15;6.83;;;6.13;;
75261;SDS011;63859;51.064;4.580;2024-02-26T10:55:48;6.67;;;5.97;;
75261;SDS011;63859;51.064;4.580;2024-02-26T10:58:14;6.87;;;5.57;;
75261;SDS011;63859;51.064;4.580;2024-02-26T11:00:42;6.63;;;5.63;;
75261;SDS011;63859;51.064;4.580;2024-02-26T11:03:08;6.17;;;5.57;;
75261;SDS011;63859;51.064;4.580;2024-02-26T11:05:35;6.40;;;5.63;;
75261;SDS011;63859;51.064;4.580;2024-02-26T11:08:02;6.97;;;5.17;;
75261;SDS011;63859;51.064;4.580;2024-02-26T11:10:30;7.07;;;5.00;;
75261;SDS011;63859;51.064;4.580;2024-02-26T11:12:57;6.93;;;5.13;;
75261;SDS011;63859;51.064;4.580;2024-02-26T11:15:26;6.33;;;5.70;;
75261;SDS011;63859;51.064;4.580;2024-02-26T11:17:54;6.90;;;5.57;;
75261;SDS011;63859;51.064;4.580;2024-02-26T11:20:21;5.83;;;5.23;;
75261;SDS011;63859;51.064;4.580;2024-02-26T11:22:48;6.87;;;5.70;;
75261;SDS011;63859;51.064;4.580;2024-02-26T11:25:13;6.97;;;5.27;;
75261;SDS011;63859;51.064;4.580;2024-02-26T11:27:46;8.57;;;6.33;;
75261;SDS011;63859;51.064;4.580;2024-02-26T11:30:15;6.10;;;5.13;;
75261;SDS011;63859;51.064;4.580;2024-02-26T11:32:45;6.00;;;5.40;;
75261;SDS011;63859;51.064;4.580;2024-02-26T11:35:11;6.60;;;5.43;;
75261;SDS011;63859;51.064;4.580;2024-02-26T11:37:40;7.00;;;5.57;;
75261;SDS011;63859;51.064;4.580;2024-02-26T11:40:10;8.00;;;6.23;;
75261;SDS011;63859;51.064;4.580;2024-02-26T11:42:43;6.27;;;5.27;;
75261;SDS011;63859;51.064;4.580;2024-02-26T11:46:10;7.83;;;5.30;;
75261;SDS011;63859;51.064;4.580;2024-02-26T11:48:13;5.90;;;5.30;;
75261;SDS011;63859;51.064;4.580;2024-02-26T11:50:50;7.10;;;5.73;;
75261;SDS011;63859;51.064;4.580;2024-02-26T11:55:45;7.43;;;5.50;;
75261;SDS011;63859;51.064;4.580;2024-02-26T11:58:10;7.10;;;5.27;;
75261;SDS011;63859;51.064;4.580;2024-02-26T12:00:36;5.57;;;4.80;;
75261;SDS011;63859;51.064;4.580;2024-02-26T12:03:01;6.60;;;5.47;;
75261;SDS011;63859;51.064;4.580;2024-02-26T12:05:32;5.70;;;4.63;;
75261;SDS011;63859;51.064;4.580;2024-02-26T12:08:00;6.07;;;5.20;;
75261;SDS011;63859;51.064;4.580;2024-02-26T12:10:32;9.23;;;5.70;;
75261;SDS011;63859;51.064;4.580;2024-02-26T12:13:05;7.83;;;5.47;;
75261;SDS011;63859;51.064;4.580;2024-02-26T12:15:36;9.77;;;6.03;;
75261;SDS011;63859;51.064;4.580;2024-02-26T12:18:03;6.27;;;5.23;;
75261;SDS011;63859;51.064;4.580;2024-02-26T12:20:30;7.73;;;6.00;;
75261;SDS011;63859;51.064;4.580;2024-02-26T12:22:56;8.00;;;6.47;;
75261;SDS011;63859;51.064;4.580;2024-02-26T12:25:24;8.90;;;6.50;;
75261;SDS011;63859;51.064;4.580;2024-02-26T12:27:51;9.60;;;6.87;;
75261;SDS011;63859;51.064;4.580;2024-02-26T12:30:18;9.10;;;6.43;;
75261;SDS011;63859;51.064;4.580;2024-02-26T12:32:44;7.33;;;6.13;;
75261;SDS011;63859;51.064;4.580;2024-02-26T12:35:14;10.90;;;7.00;;
75261;SDS011;63859;51.064;4.580;2024-02-26T12:37:41;6.57;;;5.83;;
75261;SDS011;63859;51.064;4.580;2024-02-26T12:40:10;8.60;;;6.97;;
75261;SDS011;63859;51.064;4.580;2024-02-26T12:42:38;8.53;;;6.60;;
75261;SDS011;63859;51.064;4.580;2024-02-26T12:45:07;10.93;;;7.37;;
75261;SDS011;63859;51.064;4.580;2024-02-26T12:50:03;10.17;;;7.37;;
75261;SDS011;63859;51.064;4.580;2024-02-26T12:52:29;9.80;;;7.03;;
75261;SDS011;63859;51.064;4.580;2024-02-26T12:54:59;11.20;;;8.07;;
75261;SDS011;63859;51.064;4.580;2024-02-26T12:57:25;9.37;;;7.30;;
75261;SDS011;63859;51.064;4.580;2024-02-26T12:59:52;10.37;;;6.97;;
75261;SDS011;63859;51.064;4.580;2024-02-26T13:02:17;9.80;;;7.47;;
75261;SDS011;63859;51.064;4.580;2024-02-26T13:04:43;8.43;;;6.53;;
75261;SDS011;63859;51.064;4.580;2024-02-26T13:07:09;9.30;;;6.67;;
75261;SDS011;63859;51.064;4.580;2024-02-26T13:09:35;9.63;;;7.40;;
75261;SDS011;63859;51.064;4.580;2024-02-26T13:12:03;10.23;;;7.20;;
75261;SDS011;63859;51.064;4.580;2024-02-26T13:14:30;10.77;;;7.60;;
75261;SDS011;63859;51.064;4.580;2024-02-26T13:16:58;11.47;;;7.57;;
75261;SDS011;63859;51.064;4.580;2024-02-26T13:19:25;10.97;;;8.20;;
75261;SDS011;63859;51.064;4.580;2024-02-26T13:21:52;13.10;;;7.70;;
75261;SDS011;63859;51.064;4.580;2024-02-26T13:24:19;12.27;;;8.50;;
75261;SDS011;63859;51.064;4.580;2024-02-26T13:26:45;14.83;;;8.90;;
75261;SDS011;63859;51.064;4.580;2024-02-26T13:29:17;11.87;;;7.73;;
75261;SDS011;63859;51.064;4.580;2024-02-26T13:31:43;12.10;;;7.50;;
75261;SDS011;63859;51.064;4.580;2024-02-26T13:34:09;13.83;;;7.50;;
75261;SDS011;63859;51.064;4.580;2024-02-26T13:36:35;11.10;;;7.80;;
75261;SDS011;63859;51.064;4.580;2024-02-26T13:39:01;11.83;;;7.97;;
75261;SDS011;63859;51.064;4.580;2024-02-26T13:41:29;10.83;;;7.30;;
75261;SDS011;63859;51.064;4.580;2024-02-26T13:43:55;10.07;;;7.47;;
75261;SDS011;63859;51.064;4.580;2024-02-26T13:46:22;11.60;;;7.17;;
75261;SDS011;63859;51.064;4.580;2024-02-26T13:48:48;10.53;;;6.97;;
75261;SDS011;63859;51.064;4.580;2024-02-26T13:51:14;9.77;;;6.93;;
75261;SDS011;63859;51.064;4.580;2024-02-26T13:53:41;10.87;;;7.50;;
75261;SDS011;63859;51.064;4.580;2024-02-26T13:56:07;10.90;;;7.53;;
75261;SDS011;63859;51.064;4.580;2024-02-26T13:58:34;12.27;;;7.50;;
75261;SDS011;63859;51.064;4.580;2024-02-26T14:01:00;10.47;;;6.57;;
75261;SDS011;63859;51.064;4.580;2024-02-26T14:03:28;13.43;;;8.30;;
75261;SDS011;63859;51.064;4.580;2024-02-26T14:05:54;12.63;;;8.20;;
75261;SDS011;63859;51.064;4.580;2024-02-26T14:08:19;10.33;;;7.27;;
75261;SDS011;63859;51.064;4.580;2024-02-26T14:10:45;11.93;;;7.97;;
75261;SDS011;63859;51.064;4.580;2024-02-26T14:13:11;13.67;;;8.20;;
75261;SDS011;63859;51.064;4.580;2024-02-26T14:15:37;11.67;;;7.57;;
75261;SDS011;63859;51.064;4.580;2024-02-26T14:18:04;11.40;;;7.30;;
75261;SDS011;63859;51.064;4.580;2024-02-26T14:20:30;13.77;;;8.30;;
75261;SDS011;63859;51.064;4.580;2024-02-26T14:22:55;14.00;;;8.60;;
75261;SDS011;63859;51.064;4.580;2024-02-26T14:25:21;11.60;;;7.93;;
75261;SDS011;63859;51.064;4.580;2024-02-26T14:27:47;11.80;;;7.57;;
75261;SDS011;63859;51.064;4.580;2024-02-26T14:30:13;11.67;;;7.93;;
75261;SDS011;63859;51.064;4.580;2024-02-26T14:32:39;14.00;;;8.50;;
75261;SDS011;63859;51.064;4.580;2024-02-26T14:35:06;11.37;;;7.27;;
75261;SDS011;63859;51.064;4.580;2024-02-26T14:37:34;11.10;;;7.03;;
75261;SDS011;63859;51.064;4.580;2024-02-26T14:40:00;9.67;;;7.07;;
75261;SDS011;63859;51.064;4.580;2024-02-26T14:42:27;12.63;;;7.40;;
75261;SDS011;63859;51.064;4.580;2024-02-26T14:44:53;10.57;;;7.10;;